Time;durP1;ratioP1;P1;durP2;ratioP2;P2;SDS_P1;SDS_P2;PMS_P1;PMS_P2;Temp;Humidity;BMP_temperature;BMP_pressure;BME280_temperature;BME280_humidity;BME280_pressure;Samples;Min_cycle;Max_cycle;Signal;HPM_P1;HPM_P2
2023/09/04 00:00:53;;;;;;;11.05;10.55;;;;;;;;;;5086207;28;20024;-61
2023/09/04 00:03:18;;;;;;;11.00;10.50;;;;;;;;;;5086242;28;20048;-61
2023/09/04 00:05:44;;;;;;;11.30;10.80;;;;;;;;;;5083967;28;20030;-62
2023/09/04 00:08:09;;;;;;;11.35;10.85;;;;;;;;;;5089471;28;20019;-61
2023/09/04 00:10:34;;;;;;;11.10;10.60;;;;;;;;;;5089859;28;20070;-61
2023/09/04 00:13:00;;;;;;;11.50;11.00;;;;;;;;;;5086384;28;20529;-61
2023/09/04 00:15:25;;;;;;;11.00;10.50;;;;;;;;;;5084921;28;20020;-61
2023/09/04 00:17:50;;;;;;;11.20;10.70;;;;;;;;;;5088672;28;20017;-60
2023/09/04 00:20:16;;;;;;;11.02;10.52;;;;;;;;;;5080880;28;20445;-62
2023/09/04 00:22:41;;;;;;;11.20;10.70;;;;;;;;;;5083853;28;20543;-61
2023/09/04 00:25:07;;;;;;;10.90;10.40;;;;;;;;;;5085563;28;20139;-61
2023/09/04 00:27:32;;;;;;;10.77;10.27;;;;;;;;;;5089087;28;20020;-61
2023/09/04 00:29:57;;;;;;;11.00;10.50;;;;;;;;;;5088324;28;20020;-61
2023/09/04 00:32:23;;;;;;;10.90;10.40;;;;;;;;;;5084620;28;20135;-61
2023/09/04 00:34:48;;;;;;;11.00;10.50;;;;;;;;;;5080697;28;20095;-61
2023/09/04 00:37:13;;;;;;;11.00;10.50;;;;;;;;;;5079735;28;20041;-61
2023/09/04 00:39:39;;;;;;;11.30;10.80;;;;;;;;;;5085326;28;20067;-60
2023/09/04 00:42:04;;;;;;;11.30;10.80;;;;;;;;;;5084948;28;20480;-61
2023/09/04 00:44:29;;;;;;;11.35;10.85;;;;;;;;;;5081556;28;20024;-62
2023/09/04 00:46:55;;;;;;;11.02;10.52;;;;;;;;;;5083220;28;20076;-60
2023/09/04 00:49:20;;;;;;;10.68;10.18;;;;;;;;;;5083440;28;20031;-60
2023/09/04 00:51:46;;;;;;;10.75;10.25;;;;;;;;;;5088211;28;20058;-60
2023/09/04 00:54:12;;;;;;;10.98;10.48;;;;;;;;;;5086644;28;20149;-59
2023/09/04 00:56:38;;;;;;;11.07;10.57;;;;;;;;;;5084230;28;20036;-62
2023/09/04 00:59:04;;;;;;;11.25;10.75;;;;;;;;;;5082924;28;20047;-62
2023/09/04 01:01:30;;;;;;;10.70;10.20;;;;;;;;;;5083144;28;20110;-60
2023/09/04 01:03:55;;;;;;;11.07;10.57;;;;;;;;;;5082285;28;20055;-61
2023/09/04 01:06:20;;;;;;;10.70;10.20;;;;;;;;;;5084062;28;20025;-61
2023/09/04 01:08:46;;;;;;;11.20;10.70;;;;;;;;;;5086807;28;20021;-61
2023/09/04 01:11:16;;;;;;;10.90;10.40;;;;;;;;;;5085545;28;20455;-62
2023/09/04 01:13:49;;;;;;;11.23;10.73;;;;;;;;;;5084370;28;20024;-61
2023/09/04 01:16:15;;;;;;;11.07;10.57;;;;;;;;;;5080664;28;20024;-60
2023/09/04 01:18:41;;;;;;;11.07;10.57;;;;;;;;;;5082101;28;20666;-61
2023/09/04 01:21:07;;;;;;;10.98;10.48;;;;;;;;;;5085875;28;20089;-61
2023/09/04 01:23:32;;;;;;;10.85;10.35;;;;;;;;;;5085548;28;20028;-61
2023/09/04 01:26:19;;;;;;;11.02;10.52;;;;;;;;;;5082215;28;20183;-61
2023/09/04 01:28:44;;;;;;;11.40;10.90;;;;;;;;;;5081301;28;20031;-61
2023/09/04 01:31:13;;;;;;;11.00;10.50;;;;;;;;;;5082515;28;20027;-61
2023/09/04 01:33:45;;;;;;;11.15;10.65;;;;;;;;;;5082322;28;20035;-61
2023/09/04 01:36:14;;;;;;;10.95;10.45;;;;;;;;;;5083498;28;20020;-61
2023/09/04 01:38:40;;;;;;;11.00;10.50;;;;;;;;;;5085590;28;20024;-61
2023/09/04 01:41:06;;;;;;;11.15;10.65;;;;;;;;;;5084279;28;20020;-61
2023/09/04 01:43:31;;;;;;;10.80;10.30;;;;;;;;;;5088754;28;20024;-62
2023/09/04 01:45:56;;;;;;;11.30;10.80;;;;;;;;;;5083967;28;20024;-61
2023/09/04 01:48:23;;;;;;;10.95;10.45;;;;;;;;;;5078619;28;20046;-61
2023/09/04 01:50:48;;;;;;;10.80;10.30;;;;;;;;;;5085155;28;20012;-61
2023/09/04 01:53:13;;;;;;;10.80;10.30;;;;;;;;;;5086255;28;20039;-61
2023/09/04 01:55:39;;;;;;;11.10;10.60;;;;;;;;;;5089759;28;20017;-61
2023/09/04 01:58:04;;;;;;;11.40;10.90;;;;;;;;;;5082592;28;20016;-61
2023/09/04 02:00:29;;;;;;;10.82;10.32;;;;;;;;;;5080997;28;20024;-60
2023/09/04 02:02:55;;;;;;;11.50;11.00;;;;;;;;;;5087651;28;20024;-60
2023/09/04 02:05:20;;;;;;;11.20;10.70;;;;;;;;;;5086206;28;20035;-61
2023/09/04 02:07:45;;;;;;;11.10;10.60;;;;;;;;;;5087102;28;20124;-61
2023/09/04 02:10:11;;;;;;;11.30;10.80;;;;;;;;;;5080210;28;20032;-62
2023/09/04 02:12:36;;;;;;;10.98;10.48;;;;;;;;;;5086318;28;20016;-61
2023/09/04 02:15:01;;;;;;;10.90;10.40;;;;;;;;;;5081735;28;20016;-61
2023/09/04 02:17:27;;;;;;;10.88;10.38;;;;;;;;;;5079658;28;20056;-62
2023/09/04 02:19:52;;;;;;;10.80;10.30;;;;;;;;;;5083169;28;20017;-60
2023/09/04 02:22:17;;;;;;;10.90;10.40;;;;;;;;;;5084707;28;20270;-61
2023/09/04 02:24:45;;;;;;;10.98;10.48;;;;;;;;;;5082869;28;20016;-62
2023/09/04 02:27:12;;;;;;;11.32;10.82;;;;;;;;;;5086108;28;20051;-60
2023/09/04 02:29:38;;;;;;;11.30;10.80;;;;;;;;;;5084954;28;20527;-60
2023/09/04 02:32:03;;;;;;;11.45;10.95;;;;;;;;;;5081927;28;20124;-60
2023/09/04 02:34:28;;;;;;;11.10;10.60;;;;;;;;;;5083708;28;20024;-60
2023/09/04 02:36:54;;;;;;;11.20;10.70;;;;;;;;;;5082694;28;20027;-62
2023/09/04 02:39:19;;;;;;;10.80;10.30;;;;;;;;;;5088450;28;20021;-61
2023/09/04 02:41:44;;;;;;;11.50;11.00;;;;;;;;;;5091463;28;20111;-62
2023/09/04 02:44:10;;;;;;;11.48;10.98;;;;;;;;;;5088897;28;20540;-60
2023/09/04 02:46:35;;;;;;;11.15;10.65;;;;;;;;;;5088651;28;20028;-61
2023/09/04 02:49:00;;;;;;;11.30;10.80;;;;;;;;;;5085628;28;20402;-61
2023/09/04 02:51:27;;;;;;;11.38;10.88;;;;;;;;;;5089548;28;20260;-61
2023/09/04 02:53:52;;;;;;;11.27;10.77;;;;;;;;;;5089221;28;20133;-61
2023/09/04 02:56:17;;;;;;;11.38;10.88;;;;;;;;;;5090150;28;20487;-59
2023/09/04 02:58:43;;;;;;;11.43;10.93;;;;;;;;;;5088881;28;20016;-60
2023/09/04 03:01:08;;;;;;;11.50;11.00;;;;;;;;;;5088614;28;20035;-60
2023/09/04 03:03:33;;;;;;;11.23;10.73;;;;;;;;;;5087214;28;20032;-60
2023/09/04 03:06:12;;;;;;;11.32;10.82;;;;;;;;;;5082335;28;20050;-60
2023/09/04 03:08:38;;;;;;;11.30;10.80;;;;;;;;;;5082989;28;20032;-60
2023/09/04 03:11:07;;;;;;;11.18;10.68;;;;;;;;;;5087959;28;20115;-61
2023/09/04 03:13:32;;;;;;;10.90;10.40;;;;;;;;;;5085610;28;20016;-61
2023/09/04 03:15:58;;;;;;;11.10;10.60;;;;;;;;;;5087414;28;20472;-61
2023/09/04 03:18:23;;;;;;;11.63;11.13;;;;;;;;;;5087445;28;20020;-61
2023/09/04 03:20:48;;;;;;;11.07;10.57;;;;;;;;;;5090934;28;20086;-61
2023/09/04 03:23:13;;;;;;;11.20;10.70;;;;;;;;;;5090197;28;20107;-61
2023/09/04 03:25:39;;;;;;;11.05;10.55;;;;;;;;;;5092634;28;20021;-61
2023/09/04 03:28:04;;;;;;;11.20;10.70;;;;;;;;;;5089524;28;20019;-60
2023/09/04 03:30:32;;;;;;;11.27;10.77;;;;;;;;;;5089034;28;21882;-61
2023/09/04 03:32:58;;;;;;;11.52;11.02;;;;;;;;;;5086195;28;20110;-60
2023/09/04 03:35:23;;;;;;;11.52;11.02;;;;;;;;;;5087923;28;20020;-61
2023/09/04 03:37:49;;;;;;;11.70;11.20;;;;;;;;;;5097053;28;20016;-61
2023/09/04 03:40:18;;;;;;;11.70;11.20;;;;;;;;;;5092338;28;20065;-61
2023/09/04 03:42:43;;;;;;;11.27;10.77;;;;;;;;;;5085569;28;20146;-60
2023/09/04 03:45:08;;;;;;;11.05;10.55;;;;;;;;;;5087203;28;20566;-62
2023/09/04 03:47:34;;;;;;;11.20;10.70;;;;;;;;;;5086124;28;20012;-61
2023/09/04 03:49:59;;;;;;;11.73;11.23;;;;;;;;;;5077168;28;20384;-61
2023/09/04 03:52:24;;;;;;;11.23;10.73;;;;;;;;;;5088884;28;20422;-61
2023/09/04 03:54:49;;;;;;;11.60;11.10;;;;;;;;;;5085143;28;20082;-61
2023/09/04 03:57:15;;;;;;;11.10;10.60;;;;;;;;;;5086813;28;20052;-61
2023/09/04 03:59:40;;;;;;;11.10;10.60;;;;;;;;;;5087173;28;20543;-61
2023/09/04 04:02:05;;;;;;;10.85;10.35;;;;;;;;;;5083529;28;20016;-60
2023/09/04 04:04:31;;;;;;;11.80;11.30;;;;;;;;;;5082280;28;20063;-61
2023/09/04 04:06:56;;;;;;;11.35;10.85;;;;;;;;;;5087668;28;20106;-61
2023/09/04 04:09:21;;;;;;;11.10;10.60;;;;;;;;;;5085543;28;20019;-61
2023/09/04 04:11:46;;;;;;;11.00;10.50;;;;;;;;;;5083771;28;20059;-62
2023/09/04 04:14:13;;;;;;;10.80;10.30;;;;;;;;;;5080983;28;20040;-62
2023/09/04 04:16:38;;;;;;;11.32;10.82;;;;;;;;;;5086250;28;20117;-61
2023/09/04 04:19:04;;;;;;;11.00;10.50;;;;;;;;;;5084539;28;20103;-60
2023/09/04 04:21:29;;;;;;;11.05;10.55;;;;;;;;;;5081763;28;20082;-62
2023/09/04 04:23:54;;;;;;;11.10;10.60;;;;;;;;;;5084079;28;20177;-61
2023/09/04 04:26:20;;;;;;;11.48;10.98;;;;;;;;;;5083399;28;20028;-60
2023/09/04 04:28:45;;;;;;;11.50;11.00;;;;;;;;;;5082870;28;20039;-60
2023/09/04 04:31:10;;;;;;;11.00;10.50;;;;;;;;;;5082362;28;20024;-61
2023/09/04 04:33:36;;;;;;;11.50;11.00;;;;;;;;;;5087947;28;20099;-60
2023/09/04 04:36:03;;;;;;;11.35;10.85;;;;;;;;;;5086415;28;20438;-62
2023/09/04 04:38:29;;;;;;;11.10;10.60;;;;;;;;;;5087294;28;20028;-61
2023/09/04 04:40:55;;;;;;;11.32;10.82;;;;;;;;;;5081202;28;20070;-61
2023/09/04 04:43:20;;;;;;;12.07;11.48;;;;;;;;;;5086284;28;20025;-61
2023/09/04 04:45:46;;;;;;;11.20;10.70;;;;;;;;;;5085234;28;20111;-61
2023/09/04 04:48:11;;;;;;;11.27;10.77;;;;;;;;;;5084265;28;20528;-61
2023/09/04 04:50:36;;;;;;;10.73;10.23;;;;;;;;;;5082674;28;20052;-61
2023/09/04 04:53:03;;;;;;;11.38;10.88;;;;;;;;;;5086862;28;20016;-61
2023/09/04 04:55:28;;;;;;;11.32;10.82;;;;;;;;;;5083697;28;20036;-61
2023/09/04 04:57:54;;;;;;;11.20;10.70;;;;;;;;;;5080046;28;20387;-60
2023/09/04 05:00:20;;;;;;;11.38;10.88;;;;;;;;;;5086078;28;20068;-62
2023/09/04 05:02:45;;;;;;;12.63;12.02;;;;;;;;;;5076272;28;20426;-61
2023/09/04 05:05:10;;;;;;;11.85;11.35;;;;;;;;;;5083445;28;20039;-61
2023/09/04 05:07:37;;;;;;;11.07;10.57;;;;;;;;;;5087285;28;20508;-61
2023/09/04 05:10:02;;;;;;;11.40;10.90;;;;;;;;;;5087285;28;20467;-61
2023/09/04 05:12:27;;;;;;;11.52;11.02;;;;;;;;;;5081140;28;20039;-62
2023/09/04 05:14:53;;;;;;;11.20;10.70;;;;;;;;;;5083500;28;20777;-61
2023/09/04 05:17:18;;;;;;;11.55;11.05;;;;;;;;;;5085491;28;20012;-60
2023/09/04 05:19:43;;;;;;;12.00;11.45;;;;;;;;;;5082374;28;20021;-62
2023/09/04 05:22:09;;;;;;;12.05;11.50;;;;;;;;;;5086763;28;20059;-60
2023/09/04 05:24:34;;;;;;;11.48;10.98;;;;;;;;;;5083360;28;20032;-59
2023/09/04 05:27:00;;;;;;;11.85;11.35;;;;;;;;;;5082863;28;20528;-59
2023/09/04 05:29:25;;;;;;;11.45;10.95;;;;;;;;;;5081609;28;20028;-61
2023/09/04 05:31:51;;;;;;;11.60;11.10;;;;;;;;;;5079146;28;20107;-62
2023/09/04 05:34:16;;;;;;;11.95;11.45;;;;;;;;;;5086073;28;20099;-60
2023/09/04 05:36:42;;;;;;;11.40;10.90;;;;;;;;;;5083509;28;20420;-61
2023/09/04 05:39:08;;;;;;;11.68;11.18;;;;;;;;;;5085403;28;20025;-61
2023/09/04 05:41:34;;;;;;;11.48;10.98;;;;;;;;;;5085379;28;20039;-61
2023/09/04 05:43:59;;;;;;;11.27;10.77;;;;;;;;;;5081456;28;20032;-62
2023/09/04 05:46:24;;;;;;;11.70;11.20;;;;;;;;;;5077600;28;20386;-61
2023/09/04 05:48:51;;;;;;;11.80;11.30;;;;;;;;;;5079952;28;20028;-62
2023/09/04 05:51:16;;;;;;;11.18;10.68;;;;;;;;;;5079785;28;20024;-60
2023/09/04 05:53:42;;;;;;;12.23;11.63;;;;;;;;;;5078201;28;20020;-60
2023/09/04 05:56:11;;;;;;;11.70;11.20;;;;;;;;;;5079833;28;20042;-60
2023/09/04 05:58:43;;;;;;;11.73;11.23;;;;;;;;;;5085643;28;20056;-61
2023/09/04 06:01:08;;;;;;;11.63;11.13;;;;;;;;;;5082114;28;20032;-61
2023/09/04 06:03:34;;;;;;;12.15;11.55;;;;;;;;;;5079182;28;20096;-60
2023/09/04 06:05:59;;;;;;;11.60;11.10;;;;;;;;;;5076055;28;20077;-60
2023/09/04 06:08:24;;;;;;;11.43;10.93;;;;;;;;;;5078862;28;20016;-61
2023/09/04 06:10:50;;;;;;;11.40;10.90;;;;;;;;;;5083491;28;20081;-60
2023/09/04 06:13:16;;;;;;;11.57;11.07;;;;;;;;;;5084569;28;20475;-61
2023/09/04 06:15:41;;;;;;;11.55;11.05;;;;;;;;;;5086748;28;20013;-60
2023/09/04 06:18:07;;;;;;;12.07;11.55;;;;;;;;;;5091172;28;20047;-61
2023/09/04 06:20:32;;;;;;;11.73;11.23;;;;;;;;;;5082117;28;20018;-67
2023/09/04 06:22:57;;;;;;;11.70;11.20;;;;;;;;;;5084733;28;20506;-62
2023/09/04 06:25:23;;;;;;;12.30;11.70;;;;;;;;;;5081653;28;20013;-60
2023/09/04 06:27:48;;;;;;;11.73;11.23;;;;;;;;;;5083361;28;20020;-61
2023/09/04 06:30:13;;;;;;;11.60;11.10;;;;;;;;;;5076165;28;20507;-61
2023/09/04 06:32:39;;;;;;;11.57;11.07;;;;;;;;;;5079188;28;20036;-62
2023/09/04 06:35:05;;;;;;;12.30;11.70;;;;;;;;;;5084541;28;20091;-61
2023/09/04 06:37:31;;;;;;;11.75;11.23;;;;;;;;;;5082464;28;20032;-60
2023/09/04 06:39:56;;;;;;;11.32;10.82;;;;;;;;;;5085639;28;20017;-61
2023/09/04 06:42:21;;;;;;;11.57;11.07;;;;;;;;;;5082673;28;20020;-60
2023/09/04 06:44:47;;;;;;;11.50;11.00;;;;;;;;;;5077723;28;20032;-61
2023/09/04 06:47:12;;;;;;;12.35;11.75;;;;;;;;;;5080027;28;20082;-65
2023/09/04 06:49:37;;;;;;;11.90;11.40;;;;;;;;;;5080608;28;20215;-65
2023/09/04 06:52:03;;;;;;;12.40;11.80;;;;;;;;;;5082991;28;20024;-66
2023/09/04 06:54:29;;;;;;;11.88;11.38;;;;;;;;;;5082787;28;20024;-65
2023/09/04 06:56:54;;;;;;;11.80;11.30;;;;;;;;;;5081709;28;20051;-65
2023/09/04 06:59:19;;;;;;;11.73;11.23;;;;;;;;;;5080744;28;20082;-64
2023/09/04 07:01:44;;;;;;;11.77;11.27;;;;;;;;;;5075825;28;20111;-64
2023/09/04 07:04:10;;;;;;;12.45;11.85;;;;;;;;;;5083314;28;20079;-64
2023/09/04 07:06:35;;;;;;;13.63;13.02;;;;;;;;;;5081864;28;20043;-63
2023/09/04 07:09:01;;;;;;;11.90;11.40;;;;;;;;;;5081955;28;20020;-63
2023/09/04 07:11:26;;;;;;;11.90;11.40;;;;;;;;;;5081253;28;20115;-65
2023/09/04 07:13:52;;;;;;;11.93;11.43;;;;;;;;;;5085675;28;20109;-64
2023/09/04 07:16:18;;;;;;;12.00;11.50;;;;;;;;;;5084736;28;20016;-63
2023/09/04 07:18:43;;;;;;;12.15;11.60;;;;;;;;;;5081366;28;20541;-63
2023/09/04 07:21:08;;;;;;;12.50;11.90;;;;;;;;;;5080249;28;20753;-63
2023/09/04 07:23:33;;;;;;;12.65;12.05;;;;;;;;;;5079097;28;20487;-63
2023/09/04 07:25:59;;;;;;;11.88;11.38;;;;;;;;;;5081070;28;20059;-64
2023/09/04 07:28:24;;;;;;;11.77;11.27;;;;;;;;;;5078914;28;20028;-63
2023/09/04 07:30:53;;;;;;;11.10;10.60;;;;;;;;;;5088059;28;20036;-64
2023/09/04 07:33:19;;;;;;;11.93;11.43;;;;;;;;;;5084290;28;20023;-63
2023/09/04 07:35:53;;;;;;;11.50;11.00;;;;;;;;;;5078906;28;20477;-64
2023/09/04 07:38:18;;;;;;;11.70;11.20;;;;;;;;;;5079083;28;20028;-65
2023/09/04 07:40:43;;;;;;;11.85;11.35;;;;;;;;;;5077393;28;20024;-65
2023/09/04 07:43:09;;;;;;;11.73;11.23;;;;;;;;;;5074481;28;20033;-66
2023/09/04 07:45:34;;;;;;;12.88;12.27;;;;;;;;;;5082561;28;20187;-64
2023/09/04 07:47:59;;;;;;;12.05;11.55;;;;;;;;;;5080832;28;20368;-68
2023/09/04 07:50:25;;;;;;;11.70;11.20;;;;;;;;;;5082923;28;20032;-66
2023/09/04 07:52:50;;;;;;;11.63;11.13;;;;;;;;;;5077931;28;20047;-66
2023/09/04 07:55:15;;;;;;;12.10;11.60;;;;;;;;;;5082727;28;20445;-66
2023/09/04 07:57:40;;;;;;;12.25;11.68;;;;;;;;;;5077330;28;20028;-65
2023/09/04 08:00:06;;;;;;;11.20;10.70;;;;;;;;;;5080748;28;20122;-69
2023/09/04 08:02:31;;;;;;;12.02;11.52;;;;;;;;;;5083113;28;20044;-66
2023/09/04 08:04:57;;;;;;;12.18;11.65;;;;;;;;;;5077218;28;20060;-67
2023/09/04 08:07:23;;;;;;;12.00;11.50;;;;;;;;;;5083363;28;20063;-67
2023/09/04 08:09:49;;;;;;;11.90;11.40;;;;;;;;;;5080556;28;20081;-68
2023/09/04 08:12:14;;;;;;;11.88;11.38;;;;;;;;;;5083788;28;20604;-66
2023/09/04 08:14:39;;;;;;;11.90;11.40;;;;;;;;;;5079644;28;20438;-66
2023/09/04 08:17:05;;;;;;;12.10;11.60;;;;;;;;;;5083029;28;20016;-67
2023/09/04 08:19:30;;;;;;;12.65;12.05;;;;;;;;;;5084338;28;20507;-67
2023/09/04 08:21:58;;;;;;;11.88;11.38;;;;;;;;;;5085912;28;20028;-64
2023/09/04 08:24:24;;;;;;;11.98;11.48;;;;;;;;;;5082270;28;20059;-66
2023/09/04 08:26:49;;;;;;;11.90;11.40;;;;;;;;;;5081058;28;20478;-63
2023/09/04 08:29:14;;;;;;;11.88;11.38;;;;;;;;;;5080874;28;20514;-63
2023/09/04 08:31:40;;;;;;;12.00;11.50;;;;;;;;;;5081988;28;20100;-63
2023/09/04 08:34:05;;;;;;;12.27;11.68;;;;;;;;;;5080613;28;21608;-63
2023/09/04 08:36:30;;;;;;;11.63;11.13;;;;;;;;;;5083993;28;20031;-63
2023/09/04 08:38:56;;;;;;;12.32;11.75;;;;;;;;;;5081840;28;20368;-65
2023/09/04 08:41:21;;;;;;;12.15;11.60;;;;;;;;;;5078259;28;20310;-64
2023/09/04 08:43:47;;;;;;;12.00;11.50;;;;;;;;;;5078758;28;20127;-63
2023/09/04 08:46:15;;;;;;;12.07;11.57;;;;;;;;;;5080775;28;20076;-63
2023/09/04 08:48:42;;;;;;;12.30;11.70;;;;;;;;;;5078124;28;20051;-65
2023/09/04 08:51:08;;;;;;;11.68;11.18;;;;;;;;;;5079087;28;20441;-64
2023/09/04 08:53:34;;;;;;;11.85;11.35;;;;;;;;;;5080573;28;20024;-65
2023/09/04 08:56:02;;;;;;;12.02;11.52;;;;;;;;;;5084259;28;20021;-63
2023/09/04 08:58:27;;;;;;;11.90;11.40;;;;;;;;;;5082665;28;20020;-64
2023/09/04 09:00:53;;;;;;;11.63;11.13;;;;;;;;;;5080324;28;20502;-63
2023/09/04 09:03:18;;;;;;;12.00;11.50;;;;;;;;;;5077703;28;20487;-64
2023/09/04 09:05:46;;;;;;;12.13;11.63;;;;;;;;;;5081462;28;20032;-64
2023/09/04 09:08:11;;;;;;;11.60;11.10;;;;;;;;;;5080937;28;20028;-64
2023/09/04 09:10:37;;;;;;;12.15;11.65;;;;;;;;;;5074870;28;20032;-64
2023/09/04 09:13:02;;;;;;;11.57;11.07;;;;;;;;;;5082058;28;20501;-64
2023/09/04 09:15:30;;;;;;;12.57;11.98;;;;;;;;;;5076320;28;20016;-66
2023/09/04 09:17:57;;;;;;;12.40;11.80;;;;;;;;;;5078695;28;20196;-63
2023/09/04 09:20:32;;;;;;;12.30;11.70;;;;;;;;;;5080878;28;20419;-64
2023/09/04 09:22:58;;;;;;;11.93;11.43;;;;;;;;;;5081219;28;20020;-63
2023/09/04 09:25:24;;;;;;;12.10;11.60;;;;;;;;;;5077893;28;20099;-62
2023/09/04 09:27:49;;;;;;;12.00;11.50;;;;;;;;;;5078186;28;20535;-62
2023/09/04 09:30:14;;;;;;;11.73;11.23;;;;;;;;;;5083777;28;20077;-63
2023/09/04 09:32:41;;;;;;;12.13;11.63;;;;;;;;;;5083188;28;20359;-62
2023/09/04 09:35:07;;;;;;;11.55;11.05;;;;;;;;;;5079210;28;20027;-65
2023/09/04 09:37:33;;;;;;;12.05;11.55;;;;;;;;;;5082654;28;20369;-63
2023/09/04 09:39:58;;;;;;;11.98;11.48;;;;;;;;;;5083080;28;20085;-64
2023/09/04 09:42:26;;;;;;;11.95;11.45;;;;;;;;;;5074525;28;20016;-61
2023/09/04 09:44:52;;;;;;;12.25;11.65;;;;;;;;;;5076551;28;20021;-62
2023/09/04 09:47:17;;;;;;;12.10;11.60;;;;;;;;;;5078860;28;20030;-63
2023/09/04 09:49:43;;;;;;;12.50;11.90;;;;;;;;;;5074415;28;20498;-60
2023/09/04 09:52:11;;;;;;;12.00;11.50;;;;;;;;;;5072941;28;20074;-63
2023/09/04 09:54:38;;;;;;;12.85;12.25;;;;;;;;;;5077674;28;20035;-63
2023/09/04 09:57:07;;;;;;;11.75;11.25;;;;;;;;;;5078427;28;20078;-63
2023/09/04 09:59:33;;;;;;;12.30;11.73;;;;;;;;;;5072840;28;20055;-62
2023/09/04 10:02:00;;;;;;;12.35;11.75;;;;;;;;;;5080823;28;20040;-62
2023/09/04 10:04:27;;;;;;;12.07;11.55;;;;;;;;;;5073153;28;20482;-63
2023/09/04 10:06:53;;;;;;;11.93;11.43;;;;;;;;;;5079634;28;20032;-64
2023/09/04 10:09:20;;;;;;;11.65;11.15;;;;;;;;;;5074186;28;20024;-63
2023/09/04 10:11:48;;;;;;;12.45;11.85;;;;;;;;;;5077501;28;20028;-62
2023/09/04 10:14:20;;;;;;;12.20;11.65;;;;;;;;;;5078757;28;20031;-62
2023/09/04 10:16:56;;;;;;;11.65;11.15;;;;;;;;;;5077584;28;20021;-64
2023/09/04 10:19:24;;;;;;;11.98;11.48;;;;;;;;;;5074903;28;20016;-62
2023/09/04 10:21:52;;;;;;;12.02;11.52;;;;;;;;;;5075036;28;20028;-64
2023/09/04 10:24:21;;;;;;;11.55;11.05;;;;;;;;;;5072222;28;20028;-63
2023/09/04 10:26:51;;;;;;;12.50;11.90;;;;;;;;;;5073728;28;20082;-63
2023/09/04 10:29:17;;;;;;;12.10;11.60;;;;;;;;;;5076333;28;20039;-64
2023/09/04 10:31:43;;;;;;;12.13;11.63;;;;;;;;;;5078127;28;20114;-65
2023/09/04 10:34:09;;;;;;;12.07;11.57;;;;;;;;;;5077070;28;20035;-64
2023/09/04 10:36:34;;;;;;;12.38;11.77;;;;;;;;;;5074669;28;20506;-64
2023/09/04 10:39:00;;;;;;;12.07;11.57;;;;;;;;;;5076376;28;20016;-64
2023/09/04 10:41:30;;;;;;;11.52;11.02;;;;;;;;;;5079012;28;20029;-62
2023/09/04 10:43:55;;;;;;;12.38;11.80;;;;;;;;;;5075328;28;20028;-64
2023/09/04 10:46:20;;;;;;;12.27;11.73;;;;;;;;;;5080524;28;20521;-63
2023/09/04 10:48:47;;;;;;;12.10;11.60;;;;;;;;;;5078049;28;20089;-63
2023/09/04 10:51:28;;;;;;;12.07;11.57;;;;;;;;;;5076343;28;20169;-64
2023/09/04 10:53:53;;;;;;;12.20;11.70;;;;;;;;;;5080560;28;20575;-64
2023/09/04 10:56:18;;;;;;;12.55;11.95;;;;;;;;;;5080104;28;20031;-64
2023/09/04 10:59:00;;;;;;;12.40;11.80;;;;;;;;;;5078765;28;20020;-65
2023/09/04 11:01:33;;;;;;;12.50;11.90;;;;;;;;;;5079279;28;20039;-64
2023/09/04 11:04:00;;;;;;;11.88;11.38;;;;;;;;;;5082586;28;20063;-64
2023/09/04 11:06:25;;;;;;;12.20;11.68;;;;;;;;;;5082233;28;20082;-64
2023/09/04 11:08:51;;;;;;;12.65;12.05;;;;;;;;;;5079338;28;20086;-65
2023/09/04 11:11:19;;;;;;;12.45;11.85;;;;;;;;;;5080644;28;20032;-63
2023/09/04 11:13:45;;;;;;;12.55;11.95;;;;;;;;;;5079121;28;20024;-65
2023/09/04 11:16:11;;;;;;;12.38;11.80;;;;;;;;;;5082479;28;20020;-65
2023/09/04 11:18:36;;;;;;;13.35;12.75;;;;;;;;;;5076567;28;20031;-65
2023/09/04 11:21:03;;;;;;;11.63;11.13;;;;;;;;;;5080727;28;20114;-66
2023/09/04 11:23:28;;;;;;;12.13;11.63;;;;;;;;;;5082313;28;20032;-64
2023/09/04 11:25:54;;;;;;;11.80;11.30;;;;;;;;;;5079653;28;20494;-63
2023/09/04 11:28:23;;;;;;;11.45;10.95;;;;;;;;;;5080383;28;20017;-63
2023/09/04 11:30:51;;;;;;;11.90;11.40;;;;;;;;;;5079098;28;20157;-64
2023/09/04 11:33:16;;;;;;;11.80;11.30;;;;;;;;;;5073440;28;20082;-64
2023/09/04 11:35:42;;;;;;;12.55;11.95;;;;;;;;;;5081160;28;20016;-63
2023/09/04 11:38:27;;;;;;;12.05;11.55;;;;;;;;;;5083126;28;20021;-64
2023/09/04 11:40:52;;;;;;;11.50;11.00;;;;;;;;;;5087835;28;20403;-65
2023/09/04 11:43:19;;;;;;;11.90;11.40;;;;;;;;;;5080394;28;20031;-64
2023/09/04 11:45:44;;;;;;;12.98;12.38;;;;;;;;;;5079369;28;20031;-64
2023/09/04 11:48:10;;;;;;;12.02;11.52;;;;;;;;;;5081917;28;20024;-65
2023/09/04 11:50:35;;;;;;;12.48;11.88;;;;;;;;;;5079619;28;20024;-65
2023/09/04 11:53:01;;;;;;;11.90;11.40;;;;;;;;;;5075688;28;20016;-64
2023/09/04 11:55:27;;;;;;;12.80;12.20;;;;;;;;;;5080293;28;20024;-65
2023/09/04 11:57:53;;;;;;;11.95;11.45;;;;;;;;;;5081808;28;20095;-64
2023/09/04 12:00:18;;;;;;;12.05;11.55;;;;;;;;;;5086007;28;20463;-64
2023/09/04 12:02:43;;;;;;;12.65;12.05;;;;;;;;;;5078471;28;20387;-64
2023/09/04 12:05:10;;;;;;;11.70;11.20;;;;;;;;;;5079738;28;20431;-65
2023/09/04 12:07:36;;;;;;;12.00;11.50;;;;;;;;;;5082673;28;20078;-66
2023/09/04 12:10:01;;;;;;;12.10;11.57;;;;;;;;;;5081989;28;20020;-65
2023/09/04 12:12:27;;;;;;;11.73;11.23;;;;;;;;;;5079601;28;22022;-65
2023/09/04 12:14:52;;;;;;;11.80;11.30;;;;;;;;;;5086912;28;20436;-66
2023/09/04 12:17:17;;;;;;;11.90;11.40;;;;;;;;;;5082234;28;20095;-64
2023/09/04 12:19:42;;;;;;;12.20;11.70;;;;;;;;;;5086267;28;20062;-65
2023/09/04 12:22:12;;;;;;;11.85;11.35;;;;;;;;;;5081564;28;20039;-64
2023/09/04 12:24:37;;;;;;;12.40;11.80;;;;;;;;;;5083869;28;20570;-65
2023/09/04 12:27:03;;;;;;;11.90;11.40;;;;;;;;;;5078379;28;20024;-65
2023/09/04 12:29:29;;;;;;;11.80;11.30;;;;;;;;;;5078647;28;20340;-67
2023/09/04 12:31:54;;;;;;;11.55;11.05;;;;;;;;;;5080693;28;20016;-67
2023/09/04 12:34:23;;;;;;;11.90;11.40;;;;;;;;;;5080514;28;20703;-67
2023/09/04 12:36:53;;;;;;;11.73;11.23;;;;;;;;;;5082927;28;20339;-67
2023/09/04 12:39:18;;;;;;;11.70;11.20;;;;;;;;;;5082033;28;20027;-64
2023/09/04 12:41:44;;;;;;;12.00;11.50;;;;;;;;;;5081068;28;20100;-64
2023/09/04 12:44:09;;;;;;;11.68;11.18;;;;;;;;;;5077222;28;20032;-65
2023/09/04 12:46:34;;;;;;;11.80;11.30;;;;;;;;;;5080543;28;20102;-64
2023/09/04 12:49:00;;;;;;;11.65;11.15;;;;;;;;;;5077461;28;20039;-66
2023/09/04 12:51:25;;;;;;;12.25;11.65;;;;;;;;;;5081587;28;20051;-65
2023/09/04 12:53:50;;;;;;;13.40;12.80;;;;;;;;;;5082842;28;20121;-66
2023/09/04 12:56:16;;;;;;;11.95;11.45;;;;;;;;;;5082316;28;20028;-67
2023/09/04 12:58:41;;;;;;;11.90;11.40;;;;;;;;;;5081757;28;20081;-66
2023/09/04 13:01:06;;;;;;;11.65;11.15;;;;;;;;;;5076334;28;20016;-66
2023/09/04 13:03:32;;;;;;;11.80;11.30;;;;;;;;;;5083475;28;20123;-65
2023/09/04 13:05:57;;;;;;;11.95;11.45;;;;;;;;;;5079216;28;20383;-65
2023/09/04 13:08:22;;;;;;;11.88;11.38;;;;;;;;;;5076387;28;20024;-64
2023/09/04 13:10:48;;;;;;;11.75;11.25;;;;;;;;;;5085109;28;20930;-66
2023/09/04 13:13:13;;;;;;;11.95;11.45;;;;;;;;;;5077212;28;20510;-65
2023/09/04 13:15:38;;;;;;;11.95;11.45;;;;;;;;;;5080435;28;20069;-65
2023/09/04 13:18:04;;;;;;;11.80;11.30;;;;;;;;;;5084456;28;20088;-65
2023/09/04 13:20:30;;;;;;;12.70;12.10;;;;;;;;;;5079440;28;20117;-66
2023/09/04 13:22:55;;;;;;;11.85;11.35;;;;;;;;;;5079646;28;20027;-65
2023/09/04 13:25:21;;;;;;;11.75;11.25;;;;;;;;;;5083935;28;20048;-67
2023/09/04 13:27:46;;;;;;;11.88;11.38;;;;;;;;;;5085327;28;20020;-65
2023/09/04 13:30:11;;;;;;;12.60;12.00;;;;;;;;;;5078379;28;20028;-64
2023/09/04 13:32:37;;;;;;;11.90;11.40;;;;;;;;;;5077846;28;20743;-64
2023/09/04 13:35:09;;;;;;;12.18;11.63;;;;;;;;;;5087962;28;20031;-64
2023/09/04 13:37:35;;;;;;;11.60;11.10;;;;;;;;;;5083694;28;20201;-65
2023/09/04 13:40:00;;;;;;;12.52;11.93;;;;;;;;;;5079420;28;20099;-63
2023/09/04 13:42:25;;;;;;;12.27;11.70;;;;;;;;;;5079536;28;20044;-64
2023/09/04 13:44:51;;;;;;;11.80;11.30;;;;;;;;;;5081830;28;20038;-64
2023/09/04 13:47:22;;;;;;;12.23;11.65;;;;;;;;;;5075113;28;20029;-62
2023/09/04 13:49:48;;;;;;;11.85;11.35;;;;;;;;;;5085673;28;20057;-64
2023/09/04 13:52:14;;;;;;;12.00;11.50;;;;;;;;;;5078180;28;20024;-64
2023/09/04 13:54:39;;;;;;;11.80;11.30;;;;;;;;;;5082621;28;20526;-63
2023/09/04 13:57:05;;;;;;;12.48;11.88;;;;;;;;;;5081908;28;20031;-63
2023/09/04 13:59:30;;;;;;;12.10;11.60;;;;;;;;;;5077961;28;20099;-65
2023/09/04 14:01:55;;;;;;;11.68;11.18;;;;;;;;;;5080152;28;20116;-65
2023/09/04 14:04:20;;;;;;;11.75;11.25;;;;;;;;;;5081822;28;20036;-69
2023/09/04 14:06:46;;;;;;;11.95;11.45;;;;;;;;;;5079193;28;20027;-68
2023/09/04 14:09:11;;;;;;;11.68;11.18;;;;;;;;;;5077487;28;21262;-68